createdAt,value
2023-09-23T00:00:28.995Z,2.58
2023-09-23T00:05:54.977Z,2.80
2023-09-23T00:11:17.333Z,2.37
2023-09-23T00:16:39.886Z,2.70
2023-09-23T00:22:03.742Z,2.83
2023-09-23T00:27:27.795Z,2.72
2023-09-23T00:32:50.251Z,2.67
2023-09-23T00:38:13.658Z,2.83
2023-09-23T00:43:36.242Z,2.75
2023-09-23T00:49:00.712Z,2.80
2023-09-23T00:54:23.108Z,2.87
2023-09-23T00:59:45.787Z,2.37
2023-09-23T01:05:09.731Z,2.75
2023-09-23T01:10:32.770Z,3.00
2023-09-23T01:15:55.145Z,3.27
2023-09-23T01:21:17.495Z,3.45
2023-09-23T01:26:40.587Z,3.83
2023-09-23T01:32:16.299Z,4.67
2023-09-23T01:37:39.412Z,4.87
2023-09-23T01:43:01.733Z,6.60
2023-09-23T01:48:24.639Z,9.43
2023-09-23T01:53:47.090Z,10.90
2023-09-23T01:59:11.152Z,12.35
2023-09-23T02:04:35.384Z,13.10
2023-09-23T02:09:57.840Z,11.65
2023-09-23T02:15:20.365Z,12.80
2023-09-23T02:20:44.544Z,13.62
2023-09-23T02:26:08.295Z,13.10
2023-09-23T02:31:31.379Z,12.95
2023-09-23T02:36:54.452Z,11.57
2023-09-23T02:42:16.869Z,9.55
2023-09-23T02:47:39.450Z,8.80
2023-09-23T02:53:03.173Z,8.95
2023-09-23T02:58:25.867Z,9.13
2023-09-23T03:03:49.248Z,9.53
2023-09-23T03:09:12.526Z,10.03
2023-09-23T03:14:41.116Z,10.15
2023-09-23T03:20:08.065Z,9.88
2023-09-23T03:25:31.730Z,9.75
2023-09-23T03:30:56.075Z,9.23
2023-09-23T03:36:22.001Z,10.58
2023-09-23T03:41:48.059Z,9.13
2023-09-23T03:47:10.563Z,9.60
2023-09-23T03:52:35.179Z,8.85
2023-09-23T03:57:59.086Z,9.70
2023-09-23T04:03:21.699Z,9.73
2023-09-23T04:08:45.716Z,8.60
2023-09-23T04:14:08.625Z,10.05
2023-09-23T04:19:31.545Z,9.93
2023-09-23T04:24:55.101Z,10.05
2023-09-23T04:30:18.859Z,10.18
2023-09-23T04:35:41.894Z,9.08
2023-09-23T04:41:05.236Z,9.00
2023-09-23T04:46:28.869Z,8.98
2023-09-23T04:51:52.200Z,8.25
2023-09-23T04:57:16.098Z,8.28
2023-09-23T05:02:43.213Z,8.08
2023-09-23T05:08:06.806Z,8.10
2023-09-23T05:13:30.720Z,8.30
2023-09-23T05:18:54.973Z,7.78
2023-09-23T05:24:17.800Z,8.03
2023-09-23T05:29:40.101Z,7.45
2023-09-23T05:35:03.395Z,8.60
2023-09-23T05:40:27.880Z,7.12
2023-09-23T05:45:50.502Z,8.28
2023-09-23T05:51:17.587Z,8.20
2023-09-23T05:56:40.242Z,7.65
2023-09-23T06:02:04.694Z,7.42
2023-09-23T06:07:28.350Z,7.67
2023-09-23T06:12:51.278Z,7.90
2023-09-23T06:18:14.221Z,7.87
2023-09-23T06:23:37.673Z,8.30
2023-09-23T06:29:00.380Z,8.65
2023-09-23T06:34:23.020Z,9.03
2023-09-23T06:39:45.711Z,7.40
2023-09-23T06:45:09.790Z,7.17
2023-09-23T06:50:32.950Z,7.40
2023-09-23T06:55:55.901Z,7.80
2023-09-23T07:01:18.954Z,8.10
2023-09-23T07:06:44.270Z,7.55
2023-09-23T07:12:10.374Z,8.35
2023-09-23T07:17:34.619Z,8.00
2023-09-23T07:22:58.103Z,8.90
2023-09-23T07:28:20.824Z,8.35
2023-09-23T07:33:43.294Z,6.60
2023-09-23T07:39:05.840Z,6.75
2023-09-23T07:44:28.772Z,6.75
2023-09-23T07:49:52.111Z,7.03
2023-09-23T07:55:15.374Z,4.85
2023-09-23T08:00:38.118Z,5.47
2023-09-23T08:06:00.968Z,5.03
2023-09-23T08:11:23.514Z,4.40
2023-09-23T08:16:47.077Z,5.20
2023-09-23T08:22:09.460Z,4.70
2023-09-23T08:27:32.580Z,4.62
2023-09-23T08:32:56.624Z,3.37
2023-09-23T08:38:19.414Z,3.70
2023-09-23T08:43:43.760Z,4.97
2023-09-23T08:49:08.913Z,4.60
2023-09-23T08:54:33.669Z,4.87
2023-09-23T08:59:58.218Z,5.10
2023-09-23T09:05:22.353Z,5.22
2023-09-23T09:10:45.484Z,5.28
2023-09-23T09:16:09.763Z,5.33
2023-09-23T09:21:35.815Z,4.67
2023-09-23T09:26:58.890Z,4.25
2023-09-23T09:32:23.050Z,3.70
2023-09-23T09:37:55.286Z,4.05
2023-09-23T09:43:16.159Z,3.65
2023-09-23T09:48:39.452Z,3.60
2023-09-23T09:54:04.507Z,3.42
2023-09-23T09:59:44.929Z,3.70
2023-09-23T10:05:11.001Z,3.00
2023-09-23T10:10:37.482Z,2.70
2023-09-23T10:16:04.720Z,2.30
2023-09-23T10:21:39.909Z,2.95
2023-09-23T10:27:02.608Z,3.02
2023-09-23T10:32:32.446Z,2.65
2023-09-23T10:43:13.673Z,3.12
2023-09-23T10:48:37.742Z,2.27
2023-09-23T10:54:02.061Z,2.60
2023-09-23T10:59:24.727Z,2.12
2023-09-23T11:04:50.018Z,2.02
2023-09-23T11:10:14.458Z,2.33
2023-09-23T11:15:37.623Z,2.00
2023-09-23T11:21:01.412Z,1.57
2023-09-23T11:26:25.916Z,1.80
2023-09-23T11:31:49.315Z,1.90
2023-09-23T11:37:12.095Z,1.57
2023-09-23T11:42:34.981Z,1.82
2023-09-23T11:47:58.528Z,1.62
2023-09-23T11:53:21.027Z,2.02
2023-09-23T11:58:48.922Z,1.90
2023-09-23T12:04:07.486Z,2.25
2023-09-23T12:09:29.966Z,2.05
2023-09-23T12:14:53.038Z,1.80
2023-09-23T12:20:16.483Z,2.30
2023-09-23T12:25:41.037Z,1.90
2023-09-23T12:31:03.434Z,1.85
2023-09-23T12:36:26.439Z,1.95
2023-09-23T12:41:49.027Z,1.80
2023-09-23T12:47:11.491Z,2.27
2023-09-23T12:52:34.432Z,2.05
2023-09-23T12:57:57.213Z,2.20
2023-09-23T13:03:19.623Z,2.17
2023-09-23T13:08:42.154Z,2.22
2023-09-23T13:14:07.142Z,2.50
2023-09-23T13:19:58.772Z,2.47
2023-09-23T13:25:21.788Z,2.35
2023-09-23T13:30:44.312Z,2.43
2023-09-23T13:36:07.300Z,2.53
2023-09-23T13:41:30.116Z,2.85
2023-09-23T13:46:53.473Z,2.33
2023-09-23T13:52:16.061Z,1.60
2023-09-23T13:57:38.516Z,1.70
2023-09-23T14:03:01.245Z,1.63
2023-09-23T14:08:23.901Z,1.70
2023-09-23T14:13:46.861Z,1.77
2023-09-23T14:19:09.588Z,1.60
2023-09-23T14:24:32.006Z,1.70
2023-09-23T14:29:55.066Z,1.60
2023-09-23T14:35:17.670Z,2.02
2023-09-23T14:40:40.111Z,1.75
2023-09-23T14:46:02.894Z,1.30
2023-09-23T14:52:02.533Z,1.22
2023-09-23T14:57:28.751Z,1.20
2023-09-23T15:02:51.557Z,1.52
2023-09-23T15:08:14.505Z,1.47
2023-09-23T15:13:37.763Z,1.30
2023-09-23T15:19:00.534Z,1.55
2023-09-23T15:24:23.666Z,1.30
2023-09-23T15:29:47.785Z,1.45
2023-09-23T15:35:12.894Z,1.20
2023-09-23T15:40:37.099Z,1.42
2023-09-23T15:46:02.672Z,1.35
2023-09-23T15:51:33.075Z,1.05
2023-09-23T15:56:58.573Z,1.05
2023-09-23T16:02:21.938Z,1.15
2023-09-23T16:13:26.808Z,1.10
2023-09-23T16:18:49.925Z,1.00
2023-09-23T16:24:12.798Z,1.10
2023-09-23T16:29:35.822Z,1.22
2023-09-23T16:34:58.982Z,1.30
2023-09-23T16:40:23.814Z,1.20
2023-09-23T16:45:46.947Z,1.07
2023-09-23T16:51:10.381Z,1.37
2023-09-23T16:56:33.361Z,1.35
2023-09-23T17:01:56.514Z,1.12
2023-09-23T17:11:51.062Z,1.40
2023-09-23T17:17:13.652Z,1.40
2023-09-23T17:22:36.788Z,1.43
2023-09-23T17:27:59.868Z,1.20
2023-09-23T17:33:22.527Z,1.23
2023-09-23T17:38:46.480Z,1.25
2023-09-23T17:44:10.989Z,1.55
2023-09-23T17:49:33.435Z,1.50
2023-09-23T17:54:58.025Z,1.20
2023-09-23T18:00:21.527Z,1.50
2023-09-23T18:05:46.270Z,1.50
2023-09-23T18:11:15.042Z,1.55
2023-09-23T18:16:38.319Z,1.40
2023-09-23T18:22:01.579Z,2.37
2023-09-23T18:27:25.183Z,1.30
2023-09-23T18:32:49.610Z,1.20
2023-09-23T18:38:13.800Z,1.50
2023-09-23T18:43:37.369Z,1.60
2023-09-23T18:49:00.184Z,1.70
2023-09-23T18:54:23.669Z,1.52
2023-09-23T18:59:47.176Z,1.80
2023-09-23T19:05:10.673Z,1.55
2023-09-23T19:10:33.944Z,1.60
2023-09-23T19:16:02.612Z,2.72
2023-09-23T19:21:25.646Z,2.90
2023-09-23T19:26:57.426Z,1.82
2023-09-23T19:32:20.253Z,2.00
2023-09-23T19:37:44.617Z,1.50
2023-09-23T19:43:07.636Z,1.72
2023-09-23T19:48:30.978Z,2.42
2023-09-23T19:53:54.525Z,2.35
2023-09-23T19:59:17.308Z,2.50
2023-09-23T20:04:42.485Z,2.15
2023-09-23T20:10:10.050Z,2.22
2023-09-23T20:15:33.041Z,1.87
2023-09-23T20:20:56.583Z,2.02
2023-09-23T20:26:19.357Z,1.82
2023-09-23T20:31:43.993Z,2.00
2023-09-23T20:37:08.593Z,1.87
2023-09-23T20:42:31.241Z,2.10
2023-09-23T20:47:54.779Z,1.72
2023-09-23T20:53:18.231Z,1.87
2023-09-23T20:58:41.061Z,1.80
2023-09-23T21:04:04.161Z,2.65
2023-09-23T21:09:26.632Z,2.27
2023-09-23T21:14:49.126Z,2.10
2023-09-23T21:20:13.475Z,2.00
2023-09-23T21:25:38.839Z,2.17
2023-09-23T21:31:01.139Z,2.37
2023-09-23T21:36:23.590Z,2.05
2023-09-23T21:41:46.439Z,2.47
2023-09-23T21:47:10.210Z,2.92
2023-09-23T21:52:32.764Z,2.55
2023-09-23T21:57:55.215Z,3.22
2023-09-23T22:03:18.603Z,3.40
2023-09-23T22:08:42.570Z,3.20
2023-09-23T22:14:06.801Z,3.45
2023-09-23T22:19:29.467Z,3.83
2023-09-23T22:24:51.820Z,3.58
2023-09-23T22:30:16.293Z,3.87
2023-09-23T22:35:40.179Z,4.25
2023-09-23T22:41:03.113Z,4.90
2023-09-23T22:46:25.566Z,4.60
2023-09-23T22:51:47.948Z,4.53
2023-09-23T22:57:12.146Z,4.85
2023-09-23T23:02:34.573Z,5.00
2023-09-23T23:08:05.041Z,5.30
2023-09-23T23:13:27.333Z,4.72
2023-09-23T23:18:50.593Z,5.05
2023-09-23T23:24:13.933Z,4.95
2023-09-23T23:29:36.331Z,4.72
2023-09-23T23:35:00.003Z,5.30
2023-09-23T23:40:24.729Z,5.53
2023-09-23T23:45:47.275Z,5.70
2023-09-23T23:51:21.259Z,6.50
2023-09-23T23:56:44.142Z,5.78
